NOZ1972 ENGM-ENEV
Flight info
| Callsign | NOZ1972 |
|---|---|
| Flight time | N/A |
| Altitude | 37000 |
| Route | RIBBE DCT GIGNI DCT SOMUB DCT PENNO |
| Aircraft | A320/M-SDE3FGHIRWY/LB1 |
Departure
| Time | N/A |
|---|---|
| Airport | Oslo-Gardermoen International Airport (ENGM) |
Arrival
| Time | 2026-04-22 19:58 |
|---|---|
| Airport | Harstad/Narvik Airport (ENEV) |
| Time | Latitude | Longitude | Altitude | Speed | Heading |
|---|---|---|---|---|---|
| 2026-04-22 18:50 | 61.65957 | 11.48412 | 32089 ft | 414 kts | 1° |
| 2026-04-22 18:50 | 61.68837 | 11.48425 | 32475 ft | 414 kts | 1° |
| 2026-04-22 18:50 | 61.71717 | 11.48434 | 32856 ft | 414 kts | 1° |
| 2026-04-22 18:50 | 61.74597 | 11.48443 | 33258 ft | 414 kts | 1° |
| 2026-04-22 18:51 | 61.77469 | 11.48457 | 33718 ft | 411 kts | 0° |
| 2026-04-22 18:51 | 61.80319 | 11.48469 | 34201 ft | 409 kts | 0° |
| 2026-04-22 18:51 | 61.83158 | 11.48476 | 34484 ft | 409 kts | 0° |
| 2026-04-22 18:51 | 61.86022 | 11.48482 | 34663 ft | 413 kts | 0° |
| 2026-04-22 18:52 | 61.88905 | 11.48490 | 34903 ft | 414 kts | 0° |
| 2026-04-22 18:52 | 61.91784 | 11.48501 | 35180 ft | 415 kts | 0° |
| 2026-04-22 18:52 | 61.94674 | 11.48514 | 35514 ft | 414 kts | 0° |
| 2026-04-22 18:52 | 61.97545 | 11.48528 | 35846 ft | 413 kts | 0° |
| 2026-04-22 18:53 | 61.99447 | 11.48542 | 36049 ft | 412 kts | 2° |
| 2026-04-22 18:53 | 62.02300 | 11.49047 | 36347 ft | 411 kts | 6° |
| 2026-04-22 18:53 | 62.05139 | 11.49705 | 36664 ft | 410 kts | 6° |
| 2026-04-22 18:53 | 62.07965 | 11.50353 | 37021 ft | 408 kts | 6° |
| 2026-04-22 18:54 | 62.10777 | 11.50993 | 37261 ft | 406 kts | 6° |
| 2026-04-22 18:54 | 62.13590 | 11.51633 | 37298 ft | 409 kts | 5° |
| 2026-04-22 18:54 | 62.19330 | 11.52940 | 37303 ft | 421 kts | 5° |
| 2026-04-22 18:55 | 62.25244 | 11.54289 | 37299 ft | 433 kts | 6° |
| 2026-04-22 18:55 | 62.31256 | 11.55671 | 37302 ft | 436 kts | 6° |
| 2026-04-22 18:56 | 62.37306 | 11.57071 | 37302 ft | 437 kts | 5° |
| 2026-04-22 18:56 | 62.43375 | 11.58483 | 37305 ft | 438 kts | 5° |
| 2026-04-22 18:57 | 62.49414 | 11.59907 | 37301 ft | 438 kts | 5° |
| 2026-04-22 18:57 | 62.55475 | 11.61331 | 37311 ft | 438 kts | 5° |
| 2026-04-22 18:58 | 62.61540 | 11.62764 | 37279 ft | 437 kts | 5° |
| 2026-04-22 18:58 | 62.67588 | 11.64191 | 37281 ft | 436 kts | 6° |
| 2026-04-22 18:59 | 62.73575 | 11.65595 | 37285 ft | 432 kts | 6° |
| 2026-04-22 18:59 | 62.79543 | 11.67019 | 37298 ft | 431 kts | 6° |
| 2026-04-22 19:00 | 62.85514 | 11.68459 | 37310 ft | 431 kts | 6° |
| 2026-04-22 19:00 | 62.91482 | 11.69900 | 37317 ft | 432 kts | 6° |
| 2026-04-22 19:01 | 62.97454 | 11.71341 | 37328 ft | 432 kts | 6° |
| 2026-04-22 19:01 | 63.03434 | 11.72772 | 37327 ft | 432 kts | 5° |
| 2026-04-22 19:02 | 63.09419 | 11.74226 | 37330 ft | 433 kts | 6° |
| 2026-04-22 19:02 | 63.15405 | 11.75690 | 37328 ft | 433 kts | 6° |
| 2026-04-22 19:03 | 63.21394 | 11.77155 | 37330 ft | 433 kts | 6° |
| 2026-04-22 19:03 | 63.27380 | 11.78615 | 37345 ft | 433 kts | 5° |
| 2026-04-22 19:04 | 63.33358 | 11.80107 | 37342 ft | 431 kts | 7° |
| 2026-04-22 19:04 | 63.39097 | 11.83740 | 37325 ft | 433 kts | 17° |
| 2026-04-22 19:05 | 63.44777 | 11.88177 | 37319 ft | 432 kts | 17° |
| 2026-04-22 19:05 | 63.50459 | 11.92620 | 37312 ft | 433 kts | 17° |
| 2026-04-22 19:06 | 63.56140 | 11.97079 | 37324 ft | 433 kts | 17° |
| 2026-04-22 19:07 | 63.64646 | 12.03804 | 37308 ft | 432 kts | 17° |
| 2026-04-22 19:07 | 63.70308 | 12.08299 | 37299 ft | 432 kts | 17° |
| 2026-04-22 19:08 | 63.75976 | 12.12815 | 37299 ft | 432 kts | 17° |
| 2026-04-22 19:08 | 63.81628 | 12.17351 | 37277 ft | 431 kts | 17° |
| 2026-04-22 19:09 | 63.87274 | 12.21902 | 37276 ft | 430 kts | 16° |
| 2026-04-22 19:09 | 63.92897 | 12.26466 | 37276 ft | 429 kts | 16° |
| 2026-04-22 19:10 | 63.98524 | 12.31018 | 37446 ft | 429 kts | 16° |
| 2026-04-22 19:10 | 64.04144 | 12.35584 | 37464 ft | 429 kts | 16° |
| 2026-04-22 19:11 | 64.09760 | 12.40178 | 37462 ft | 429 kts | 16° |
| 2026-04-22 19:11 | 64.15376 | 12.44805 | 37438 ft | 429 kts | 16° |
| 2026-04-22 19:12 | 64.20999 | 12.49438 | 37395 ft | 430 kts | 16° |
| 2026-04-22 19:12 | 64.26621 | 12.54107 | 37352 ft | 430 kts | 16° |
| 2026-04-22 19:13 | 64.32245 | 12.58783 | 37300 ft | 429 kts | 16° |
| 2026-04-22 19:13 | 64.37866 | 12.63481 | 37254 ft | 429 kts | 16° |
| 2026-04-22 19:14 | 64.43481 | 12.68197 | 37281 ft | 430 kts | 16° |
| 2026-04-22 19:14 | 64.49091 | 12.72943 | 37260 ft | 427 kts | 15° |
| 2026-04-22 19:15 | 64.53718 | 12.76862 | 37236 ft | 425 kts | 15° |
| 2026-04-22 19:15 | 64.60168 | 12.82341 | 37230 ft | 425 kts | 16° |
| 2026-04-22 19:16 | 64.65717 | 12.87092 | 37230 ft | 425 kts | 16° |
| 2026-04-22 19:16 | 64.71258 | 12.91848 | 37218 ft | 425 kts | 16° |
| 2026-04-22 19:17 | 64.76790 | 12.96627 | 37215 ft | 422 kts | 15° |
| 2026-04-22 19:17 | 64.82286 | 13.01401 | 37215 ft | 421 kts | 15° |
| 2026-04-22 19:18 | 64.87783 | 13.06184 | 37218 ft | 421 kts | 15° |
| 2026-04-22 19:18 | 64.93273 | 13.10974 | 37217 ft | 421 kts | 15° |
| 2026-04-22 19:19 | 64.98772 | 13.15790 | 37220 ft | 421 kts | 15° |
| 2026-04-22 19:19 | 65.04258 | 13.20616 | 37234 ft | 421 kts | 15° |
| 2026-04-22 19:20 | 65.09742 | 13.25463 | 37230 ft | 420 kts | 15° |
| 2026-04-22 19:20 | 65.15222 | 13.30347 | 37223 ft | 421 kts | 15° |
| 2026-04-22 19:21 | 65.20697 | 13.35246 | 37270 ft | 420 kts | 15° |
| 2026-04-22 19:21 | 65.26116 | 13.40117 | 37190 ft | 414 kts | 15° |
| 2026-04-22 19:22 | 65.31501 | 13.44964 | 37184 ft | 413 kts | 15° |
| 2026-04-22 19:22 | 65.36881 | 13.49830 | 37184 ft | 413 kts | 14° |
| 2026-04-22 19:23 | 65.42248 | 13.54692 | 37183 ft | 412 kts | 15° |
| 2026-04-22 19:23 | 65.47616 | 13.59593 | 37185 ft | 413 kts | 15° |
| 2026-04-22 19:24 | 65.52982 | 13.64523 | 37185 ft | 413 kts | 15° |
| 2026-04-22 19:24 | 65.58341 | 13.69469 | 37187 ft | 413 kts | 15° |
| 2026-04-22 19:25 | 65.63708 | 13.74446 | 37225 ft | 413 kts | 15° |
| 2026-04-22 19:25 | 65.69066 | 13.79415 | 37218 ft | 412 kts | 14° |
| 2026-04-22 19:26 | 65.74419 | 13.84400 | 37216 ft | 411 kts | 15° |
| 2026-04-22 19:26 | 65.79762 | 13.89404 | 37210 ft | 411 kts | 15° |
| 2026-04-22 19:27 | 65.85095 | 13.94437 | 37204 ft | 411 kts | 15° |
| 2026-04-22 19:27 | 65.90430 | 13.99472 | 37200 ft | 410 kts | 15° |
| 2026-04-22 19:28 | 65.95758 | 14.04533 | 37214 ft | 411 kts | 15° |
| 2026-04-22 19:28 | 66.01088 | 14.09625 | 37207 ft | 411 kts | 15° |
| 2026-04-22 19:29 | 66.06421 | 14.14738 | 37194 ft | 411 kts | 15° |
| 2026-04-22 19:29 | 66.11756 | 14.19880 | 37183 ft | 412 kts | 15° |
| 2026-04-22 19:30 | 66.16184 | 14.24176 | 37181 ft | 412 kts | 15° |
| 2026-04-22 19:30 | 66.22415 | 14.30227 | 37175 ft | 411 kts | 15° |
| 2026-04-22 19:31 | 66.27743 | 14.35421 | 37224 ft | 411 kts | 15° |
| 2026-04-22 19:31 | 66.33069 | 14.40636 | 37215 ft | 411 kts | 15° |
| 2026-04-22 19:32 | 66.38389 | 14.45883 | 37201 ft | 411 kts | 15° |
| 2026-04-22 19:32 | 66.43698 | 14.51141 | 37180 ft | 411 kts | 15° |
| 2026-04-22 19:33 | 66.49012 | 14.56428 | 37184 ft | 411 kts | 15° |
| 2026-04-22 19:33 | 66.54325 | 14.61736 | 37210 ft | 411 kts | 15° |
| 2026-04-22 19:34 | 66.59656 | 14.67085 | 37190 ft | 413 kts | 15° |
| 2026-04-22 19:34 | 66.64994 | 14.72470 | 37189 ft | 414 kts | 15° |
| 2026-04-22 19:35 | 66.70336 | 14.77893 | 37196 ft | 414 kts | 15° |
| 2026-04-22 19:35 | 66.74695 | 14.82338 | 37183 ft | 396 kts | 15° |
| 2026-04-22 19:35 | 66.78083 | 14.85809 | 36633 ft | 390 kts | 15° |
| 2026-04-22 19:36 | 66.80598 | 14.88381 | 36076 ft | 389 kts | 15° |
| 2026-04-22 19:36 | 66.83108 | 14.90946 | 35510 ft | 389 kts | 14° |
| 2026-04-22 19:36 | 66.85618 | 14.93515 | 34991 ft | 389 kts | 14° |
| 2026-04-22 19:36 | 66.88121 | 14.96082 | 34447 ft | 388 kts | 14° |
| 2026-04-22 19:37 | 66.89778 | 14.97787 | 34078 ft | 387 kts | 13° |
| 2026-04-22 19:37 | 66.93085 | 15.01198 | 33184 ft | 387 kts | 14° |
| 2026-04-22 19:37 | 66.94768 | 15.02940 | 32709 ft | 387 kts | 14° |
| 2026-04-22 19:37 | 66.98078 | 15.06379 | 31786 ft | 388 kts | 14° |
| 2026-04-22 19:38 | 67.00560 | 15.08974 | 31279 ft | 383 kts | 14° |
| 2026-04-22 19:38 | 67.03014 | 15.11550 | 30764 ft | 379 kts | 14° |
| 2026-04-22 19:38 | 67.04658 | 15.13282 | 30420 ft | 377 kts | 14° |
| 2026-04-22 19:38 | 67.07069 | 15.15823 | 29850 ft | 373 kts | 14° |
| 2026-04-22 19:39 | 67.09456 | 15.18333 | 29249 ft | 369 kts | 14° |
| 2026-04-22 19:39 | 67.11813 | 15.20810 | 28658 ft | 365 kts | 14° |
| 2026-04-22 19:39 | 67.14153 | 15.23274 | 28080 ft | 362 kts | 14° |
| 2026-04-22 19:39 | 67.15693 | 15.24897 | 27705 ft | 360 kts | 14° |
| 2026-04-22 19:40 | 67.18772 | 15.28150 | 26955 ft | 356 kts | 14° |
| 2026-04-22 19:40 | 67.21049 | 15.30564 | 26479 ft | 352 kts | 14° |
| 2026-04-22 19:40 | 67.23314 | 15.32964 | 26152 ft | 352 kts | 14° |
| 2026-04-22 19:40 | 67.25548 | 15.35336 | 25813 ft | 351 kts | 14° |
| 2026-04-22 19:41 | 67.27802 | 15.37740 | 25406 ft | 349 kts | 15° |
| 2026-04-22 19:41 | 67.30040 | 15.40140 | 24978 ft | 347 kts | 15° |
| 2026-04-22 19:41 | 67.32287 | 15.42556 | 24534 ft | 345 kts | 15° |
| 2026-04-22 19:41 | 67.34463 | 15.44902 | 24078 ft | 342 kts | 15° |
| 2026-04-22 19:42 | 67.36656 | 15.47261 | 23595 ft | 340 kts | 15° |
| 2026-04-22 19:42 | 67.38837 | 15.49605 | 23052 ft | 338 kts | 15° |
| 2026-04-22 19:42 | 67.41008 | 15.51940 | 22519 ft | 337 kts | 15° |
| 2026-04-22 19:42 | 67.43166 | 15.54272 | 22062 ft | 334 kts | 15° |
| 2026-04-22 19:43 | 67.47465 | 15.58929 | 21730 ft | 336 kts | 16° |
| 2026-04-22 19:43 | 67.49622 | 15.61280 | 21472 ft | 335 kts | 16° |
| 2026-04-22 19:43 | 67.51765 | 15.63622 | 21202 ft | 334 kts | 16° |
| 2026-04-22 19:44 | 67.53909 | 15.65965 | 20900 ft | 334 kts | 16° |
| 2026-04-22 19:44 | 67.56051 | 15.68311 | 20598 ft | 333 kts | 16° |
| 2026-04-22 19:44 | 67.58190 | 15.70665 | 20266 ft | 334 kts | 17° |
| 2026-04-22 19:44 | 67.60322 | 15.73019 | 19895 ft | 332 kts | 17° |
| 2026-04-22 19:45 | 67.62440 | 15.75358 | 19532 ft | 330 kts | 17° |
| 2026-04-22 19:45 | 67.64560 | 15.77698 | 19173 ft | 329 kts | 17° |
| 2026-04-22 19:45 | 67.66667 | 15.80024 | 18823 ft | 329 kts | 17° |
| 2026-04-22 19:45 | 67.68772 | 15.82350 | 18418 ft | 328 kts | 17° |
| 2026-04-22 19:46 | 67.70869 | 15.84676 | 17876 ft | 326 kts | 17° |
| 2026-04-22 19:46 | 67.72950 | 15.86996 | 17336 ft | 323 kts | 18° |
| 2026-04-22 19:46 | 67.75016 | 15.89304 | 16821 ft | 321 kts | 18° |
| 2026-04-22 19:46 | 67.77065 | 15.91601 | 16329 ft | 319 kts | 18° |
| 2026-04-22 19:47 | 67.79098 | 15.93883 | 15830 ft | 317 kts | 17° |
| 2026-04-22 19:47 | 67.81120 | 15.96148 | 15330 ft | 314 kts | 17° |
| 2026-04-22 19:47 | 67.83128 | 15.98399 | 14840 ft | 312 kts | 17° |
| 2026-04-22 19:47 | 67.85121 | 16.00637 | 14358 ft | 310 kts | 17° |
| 2026-04-22 19:48 | 67.87097 | 16.02860 | 13866 ft | 307 kts | 17° |
| 2026-04-22 19:48 | 67.89059 | 16.05075 | 13336 ft | 306 kts | 18° |
| 2026-04-22 19:48 | 67.91011 | 16.07285 | 12810 ft | 305 kts | 18° |
| 2026-04-22 19:48 | 67.92962 | 16.09498 | 12294 ft | 304 kts | 18° |
| 2026-04-22 19:49 | 67.94911 | 16.11706 | 11771 ft | 304 kts | 18° |
| 2026-04-22 19:49 | 67.96857 | 16.13910 | 11281 ft | 304 kts | 18° |
| 2026-04-22 19:49 | 67.98803 | 16.16108 | 10719 ft | 305 kts | 18° |
| 2026-04-22 19:49 | 68.00760 | 16.18321 | 10200 ft | 306 kts | 18° |
| 2026-04-22 19:50 | 68.02721 | 16.20551 | 9617 ft | 307 kts | 19° |
| 2026-04-22 19:50 | 68.04687 | 16.22795 | 9032 ft | 307 kts | 19° |
| 2026-04-22 19:50 | 68.06650 | 16.25037 | 8460 ft | 307 kts | 19° |
| 2026-04-22 19:50 | 68.08614 | 16.27281 | 8085 ft | 302 kts | 19° |
| 2026-04-22 19:51 | 68.10498 | 16.29445 | 8045 ft | 287 kts | 19° |
| 2026-04-22 19:51 | 68.12286 | 16.31509 | 7969 ft | 274 kts | 19° |
| 2026-04-22 19:51 | 68.14008 | 16.33499 | 7843 ft | 265 kts | 19° |
| 2026-04-22 19:51 | 68.15675 | 16.35426 | 7682 ft | 256 kts | 19° |
| 2026-04-22 19:52 | 68.17283 | 16.37283 | 7537 ft | 249 kts | 19° |
| 2026-04-22 19:52 | 68.18860 | 16.39109 | 7327 ft | 244 kts | 19° |
| 2026-04-22 19:52 | 68.20402 | 16.40937 | 7118 ft | 240 kts | 20° |
| 2026-04-22 19:52 | 68.21916 | 16.42754 | 6871 ft | 237 kts | 20° |
| 2026-04-22 19:53 | 68.23419 | 16.44566 | 6569 ft | 236 kts | 20° |
| 2026-04-22 19:53 | 68.24923 | 16.46384 | 6211 ft | 237 kts | 21° |
| 2026-04-22 19:53 | 68.26418 | 16.48201 | 5823 ft | 237 kts | 21° |
| 2026-04-22 19:53 | 68.27927 | 16.50037 | 5452 ft | 239 kts | 21° |
| 2026-04-22 19:54 | 68.29435 | 16.51865 | 5098 ft | 242 kts | 22° |
| 2026-04-22 19:54 | 68.30979 | 16.53734 | 4717 ft | 244 kts | 22° |
| 2026-04-22 19:54 | 68.32550 | 16.55645 | 4332 ft | 246 kts | 22° |
| 2026-04-22 19:54 | 68.34095 | 16.57531 | 4038 ft | 246 kts | 22° |
| 2026-04-22 19:55 | 68.35641 | 16.59426 | 4003 ft | 234 kts | 22° |
| 2026-04-22 19:55 | 68.37069 | 16.61183 | 3969 ft | 224 kts | 20° |
| 2026-04-22 19:55 | 68.38466 | 16.62893 | 3823 ft | 214 kts | 21° |
| 2026-04-22 19:55 | 68.39778 | 16.64504 | 3598 ft | 203 kts | 21° |
| 2026-04-22 19:56 | 68.41039 | 16.66052 | 3134 ft | 194 kts | 21° |
| 2026-04-22 19:56 | 68.42254 | 16.67517 | 2235 ft | 192 kts | 18° |
| 2026-04-22 19:56 | 68.43597 | 16.68153 | 1271 ft | 191 kts | 1° |
| 2026-04-22 19:56 | 68.44876 | 16.68232 | 769 ft | 174 kts | 357° |
| 2026-04-22 19:57 | 68.45976 | 16.68122 | 632 ft | 145 kts | 358° |
| 2026-04-22 19:57 | 68.46951 | 16.68035 | 312 ft | 136 kts | 357° |
| 2026-04-22 19:57 | 68.47835 | 16.67960 | 154 ft | 124 kts | 357° |
| 2026-04-22 19:57 | 68.48645 | 16.67877 | 94 ft | 104 kts | 357° |
| 2026-04-22 19:58 | 68.49086 | 16.67828 | 97 ft | 38 kts | 358° |
| 2026-04-22 19:58 | 68.49169 | 16.67854 | 94 ft | 5 kts | 85° |
| 2026-04-22 19:58 | 68.49173 | 16.68005 | 93 ft | 6 kts | 85° |
| 2026-04-22 19:58 | 68.49175 | 16.68128 | 93 ft | 7 kts | 96° |
| 2026-04-22 19:59 | 68.49147 | 16.68240 | 95 ft | 7 kts | 105° |
| 2026-04-22 20:00 | 68.49147 | 16.68307 | 93 ft | 0 kts | 88° |